createdAt,value
2018-04-18T00:02:23.579Z,35.65
2018-04-18T00:04:51.231Z,26.42
2018-04-18T00:07:18.813Z,32.28
2018-04-18T00:09:46.402Z,27.42
2018-04-18T00:12:14.059Z,28.67
2018-04-18T00:14:42.422Z,31.08
2018-04-18T00:17:10.089Z,37.20
2018-04-18T00:19:38.477Z,46.08
2018-04-18T00:22:06.078Z,36.08
2018-04-18T00:24:34.150Z,37.97
2018-04-18T00:27:01.761Z,38.85
2018-04-18T00:29:29.353Z,33.20
2018-04-18T00:31:57.025Z,32.33
2018-04-18T00:34:25.553Z,32.85
2018-04-18T00:36:53.200Z,32.47
2018-04-18T00:39:20.810Z,35.60
2018-04-18T00:41:48.422Z,32.03
2018-04-18T00:44:16.000Z,33.83
2018-04-18T00:46:44.048Z,32.08
2018-04-18T00:49:11.708Z,29.05
2018-04-18T00:51:39.299Z,30.42
2018-04-18T00:54:06.926Z,32.78
2018-04-18T00:56:34.536Z,34.35
2018-04-18T00:59:02.968Z,32.08
2018-04-18T01:01:30.551Z,36.50
2018-04-18T01:03:58.214Z,34.33
2018-04-18T01:06:25.788Z,32.80
2018-04-18T01:08:54.145Z,32.33
2018-04-18T01:11:21.813Z,35.90
2018-04-18T01:13:49.416Z,32.97
2018-04-18T01:16:17.002Z,31.80
2018-04-18T01:18:44.612Z,32.63
2018-04-18T01:21:13.008Z,29.10
2018-04-18T01:23:40.575Z,30.08
2018-04-18T01:26:08.180Z,35.22
2018-04-18T01:28:35.784Z,35.00
2018-04-18T01:31:03.583Z,27.02
2018-04-18T01:33:31.217Z,31.90
2018-04-18T01:35:58.786Z,25.60
2018-04-18T01:38:26.377Z,26.20
2018-04-18T01:40:54.067Z,27.65
2018-04-18T01:43:22.109Z,28.45
2018-04-18T01:45:49.689Z,32.60
2018-04-18T01:48:17.337Z,39.60
2018-04-18T01:50:44.936Z,28.35
2018-04-18T01:53:13.890Z,37.05
2018-04-18T01:55:41.503Z,25.80
2018-04-18T01:58:09.133Z,28.20
2018-04-18T02:00:36.733Z,28.90
2018-04-18T02:03:04.398Z,31.23
2018-04-18T02:05:31.978Z,30.05
2018-04-18T02:07:59.581Z,34.03
2018-04-18T02:10:27.204Z,34.63
2018-04-18T02:12:54.782Z,31.83
2018-04-18T02:15:22.391Z,32.95
2018-04-18T02:17:50.019Z,31.27
2018-04-18T02:20:17.635Z,32.42
2018-04-18T02:22:45.229Z,32.58
2018-04-18T02:25:12.874Z,30.80
2018-04-18T02:27:40.461Z,32.45
2018-04-18T02:30:09.063Z,35.33
2018-04-18T02:32:36.679Z,34.30
2018-04-18T02:35:04.364Z,31.20
2018-04-18T02:37:31.987Z,27.08
2018-04-18T02:39:59.606Z,32.92
2018-04-18T02:42:27.521Z,36.58
2018-04-18T02:44:55.121Z,31.60
2018-04-18T02:47:22.722Z,34.03
2018-04-18T02:49:50.369Z,33.22
2018-04-18T02:52:18.739Z,33.97
2018-04-18T02:54:46.317Z,45.25
2018-04-18T02:57:13.936Z,35.63
2018-04-18T02:59:41.510Z,33.05
2018-04-18T03:02:09.749Z,36.45
2018-04-18T03:04:37.376Z,29.90
2018-04-18T03:07:05.004Z,36.50
2018-04-18T03:09:32.637Z,38.63
2018-04-18T03:12:01.061Z,40.38
2018-04-18T03:14:28.662Z,42.42
2018-04-18T03:16:56.284Z,39.78
2018-04-18T03:19:23.886Z,37.58
2018-04-18T03:21:51.490Z,39.05
2018-04-18T03:24:19.117Z,33.03
2018-04-18T03:26:47.796Z,44.47
2018-04-18T03:29:15.365Z,34.33
2018-04-18T03:31:42.968Z,35.40
2018-04-18T03:34:10.558Z,36.55
2018-04-18T03:36:38.198Z,38.17
2018-04-18T03:39:06.564Z,37.05
2018-04-18T03:41:34.470Z,36.55
2018-04-18T03:44:02.088Z,36.47
2018-04-18T03:46:30.067Z,43.00
2018-04-18T03:48:57.668Z,35.75
2018-04-18T03:51:25.332Z,40.53
2018-04-18T03:53:52.962Z,34.80
2018-04-18T03:56:20.601Z,33.75
2018-04-18T03:58:48.230Z,34.88
2018-04-18T04:01:15.866Z,44.33
2018-04-18T04:03:43.453Z,45.03
2018-04-18T04:06:11.096Z,40.88
2018-04-18T04:08:38.676Z,40.55
2018-04-18T04:11:06.275Z,37.30
2018-04-18T04:13:34.632Z,43.03
2018-04-18T04:16:02.442Z,41.00
2018-04-18T04:18:42.539Z,43.28
2018-04-18T04:21:22.072Z,39.78
2018-04-18T04:24:01.447Z,46.63
2018-04-18T04:26:30.456Z,33.20
2018-04-18T04:28:58.064Z,42.17
2018-04-18T04:31:25.908Z,33.20
2018-04-18T04:33:53.497Z,42.42
2018-04-18T04:36:21.093Z,36.72
2018-04-18T04:38:49.153Z,37.97
2018-04-18T04:41:16.757Z,41.50
2018-04-18T04:43:44.321Z,37.67
2018-04-18T04:46:11.977Z,40.50
2018-04-18T04:48:39.557Z,36.08
2018-04-18T04:51:07.236Z,39.88
2018-04-18T04:53:34.855Z,46.72
2018-04-18T04:56:02.464Z,36.20
2018-04-18T04:58:30.066Z,32.80
2018-04-18T05:00:58.562Z,38.42
2018-04-18T05:03:26.159Z,63.35
2018-04-18T05:05:53.811Z,41.45
2018-04-18T05:08:21.471Z,133.27
2018-04-18T05:10:49.134Z,91.35
2018-04-18T05:13:16.764Z,48.47
2018-04-18T05:15:44.385Z,38.95
2018-04-18T05:18:12.039Z,46.20
2018-04-18T05:20:39.684Z,35.58
2018-04-18T05:23:07.278Z,43.83
2018-04-18T05:25:34.882Z,31.15
2018-04-18T05:28:02.463Z,32.92
2018-04-18T05:30:30.639Z,38.58
2018-04-18T05:32:58.345Z,45.05
2018-04-18T05:35:26.041Z,36.70
2018-04-18T05:37:53.829Z,38.78
2018-04-18T05:40:21.785Z,37.10
2018-04-18T05:42:49.439Z,40.78
2018-04-18T05:45:17.066Z,34.58
2018-04-18T05:47:44.999Z,36.65
2018-04-18T05:50:12.692Z,36.88
2018-04-18T05:52:41.289Z,35.25
2018-04-18T05:55:08.882Z,33.92
2018-04-18T05:57:36.640Z,37.63
2018-04-18T06:00:04.285Z,40.20
2018-04-18T06:02:32.932Z,33.78
2018-04-18T06:05:00.595Z,38.67
2018-04-18T06:07:28.228Z,37.80
2018-04-18T06:09:55.843Z,35.47
2018-04-18T06:12:23.551Z,34.70
2018-04-18T06:14:51.530Z,33.43
2018-04-18T06:17:19.176Z,30.50
2018-04-18T06:19:46.910Z,26.97
2018-04-18T06:22:15.317Z,32.17
2018-04-18T06:24:42.899Z,34.47
2018-04-18T06:27:11.481Z,33.20
2018-04-18T06:29:39.256Z,42.83
2018-04-18T06:32:07.070Z,38.53
2018-04-18T06:34:35.467Z,39.33
2018-04-18T06:37:03.311Z,38.77
2018-04-18T06:39:31.763Z,40.47
2018-04-18T06:41:59.399Z,47.10
2018-04-18T06:44:27.009Z,50.07
2018-04-18T06:46:54.659Z,50.17
2018-04-18T06:49:22.270Z,45.50
2018-04-18T06:51:50.047Z,45.58
2018-04-18T06:54:17.679Z,47.43
2018-04-18T06:56:45.324Z,52.43
2018-04-18T06:59:12.966Z,44.63
2018-04-18T07:01:40.685Z,47.80
2018-04-18T07:04:08.365Z,51.67
2018-04-18T07:06:36.792Z,44.87
2018-04-18T07:09:04.570Z,53.50
2018-04-18T07:11:32.960Z,45.77
2018-04-18T07:14:00.595Z,45.87
2018-04-18T07:16:29.038Z,50.53
2018-04-18T07:18:56.655Z,43.00
2018-04-18T07:21:25.068Z,53.13
2018-04-18T07:23:52.755Z,44.53
2018-04-18T07:26:20.354Z,43.23
2018-04-18T07:28:49.254Z,45.53
2018-04-18T07:31:17.719Z,38.33
2018-04-18T07:33:46.192Z,60.30
2018-04-18T07:36:13.814Z,46.17
2018-04-18T07:38:41.556Z,47.37
2018-04-18T07:41:09.308Z,61.00
2018-04-18T07:43:36.935Z,38.50
2018-04-18T07:46:04.562Z,46.03
2018-04-18T07:48:32.554Z,45.47
2018-04-18T07:51:00.939Z,46.70
2018-04-18T07:53:28.510Z,42.70
2018-04-18T07:55:56.199Z,39.27
2018-04-18T07:58:23.896Z,43.73
2018-04-18T08:00:52.370Z,38.87
2018-04-18T08:03:19.998Z,43.57
2018-04-18T08:05:48.974Z,45.13
2018-04-18T08:08:16.592Z,35.37
2018-04-18T08:10:44.217Z,45.13
2018-04-18T08:13:12.167Z,32.70
2018-04-18T08:15:39.829Z,37.13
2018-04-18T08:18:07.928Z,41.80
2018-04-18T08:20:35.540Z,48.00
2018-04-18T08:23:03.220Z,36.57
2018-04-18T08:25:31.071Z,35.63
2018-04-18T08:27:58.702Z,34.93
2018-04-18T08:30:26.414Z,31.93
2018-04-18T08:32:54.118Z,37.07
2018-04-18T08:35:21.718Z,32.50
2018-04-18T08:37:49.374Z,35.03
2018-04-18T08:40:17.013Z,30.60
2018-04-18T08:42:44.750Z,27.23
2018-04-18T08:45:12.367Z,39.53
2018-04-18T08:47:40.044Z,32.00
2018-04-18T08:50:08.406Z,29.20
2018-04-18T08:52:37.110Z,35.83
2018-04-18T08:55:04.716Z,31.00
2018-04-18T08:57:32.368Z,29.80
2018-04-18T09:00:00.789Z,23.20
2018-04-18T09:02:28.459Z,30.73
2018-04-18T09:04:56.109Z,27.60
2018-04-18T09:07:24.029Z,23.50
2018-04-18T09:09:52.900Z,24.57
2018-04-18T09:12:20.520Z,27.73
2018-04-18T09:14:48.115Z,24.63
2018-04-18T09:17:15.751Z,21.30
2018-04-18T09:19:43.403Z,29.43
2018-04-18T09:22:11.345Z,19.17
2018-04-18T09:24:39.793Z,14.43
2018-04-18T09:27:07.473Z,28.90
2018-04-18T09:29:35.066Z,23.70
2018-04-18T09:32:02.659Z,19.77
2018-04-18T09:34:30.304Z,15.53
2018-04-18T09:36:58.049Z,14.50
2018-04-18T09:39:25.761Z,18.80
2018-04-18T09:41:53.320Z,20.63
2018-04-18T09:44:20.963Z,15.80
2018-04-18T09:46:48.549Z,16.10
2018-04-18T09:49:16.209Z,16.07
2018-04-18T09:51:44.023Z,17.00
2018-04-18T09:54:11.721Z,12.53
2018-04-18T09:56:39.343Z,18.80
2018-04-18T09:59:06.960Z,22.13
2018-04-18T10:01:40.296Z,24.07
2018-04-18T10:04:09.745Z,17.80
2018-04-18T10:06:37.372Z,21.77
2018-04-18T10:09:05.937Z,21.83
2018-04-18T10:11:34.345Z,18.00
2018-04-18T10:14:01.945Z,20.57
2018-04-18T10:16:29.552Z,19.60
2018-04-18T10:18:58.976Z,17.00
2018-04-18T10:21:26.632Z,24.40
2018-04-18T10:23:54.317Z,20.07
2018-04-18T10:26:21.969Z,22.90
2018-04-18T10:28:50.457Z,23.90
2018-04-18T10:31:18.166Z,20.63
2018-04-18T10:33:45.873Z,26.40
2018-04-18T10:36:13.495Z,16.33
2018-04-18T10:38:42.870Z,18.40
2018-04-18T10:41:10.529Z,19.13
2018-04-18T10:43:38.213Z,25.40
2018-04-18T10:46:05.885Z,21.60
2018-04-18T10:48:33.511Z,27.07
2018-04-18T10:51:01.101Z,18.47
2018-04-18T10:53:29.478Z,19.13
2018-04-18T10:55:57.298Z,14.40
2018-04-18T10:58:24.904Z,21.03
2018-04-18T11:00:52.647Z,19.10
2018-04-18T11:03:20.396Z,39.30
2018-04-18T11:05:48.158Z,19.07
2018-04-18T11:08:15.827Z,14.47
2018-04-18T11:10:43.476Z,16.97
2018-04-18T11:13:11.131Z,24.43
2018-04-18T11:15:38.871Z,21.10
2018-04-18T11:18:06.516Z,13.70
2018-04-18T11:20:34.900Z,16.43
2018-04-18T11:23:03.306Z,22.77
2018-04-18T11:25:31.028Z,14.63
2018-04-18T11:27:58.681Z,14.40
2018-04-18T11:30:26.302Z,13.47
2018-04-18T11:32:53.949Z,17.67
2018-04-18T11:35:21.537Z,23.93
2018-04-18T11:37:50.031Z,21.53
2018-04-18T11:40:17.704Z,15.30
2018-04-18T11:42:45.380Z,17.57
2018-04-18T11:45:12.980Z,17.27
2018-04-18T11:47:41.352Z,15.83
2018-04-18T11:50:09.390Z,16.33
2018-04-18T11:52:36.954Z,22.10
2018-04-18T11:55:04.555Z,17.30
2018-04-18T11:57:32.455Z,17.33
2018-04-18T12:00:00.068Z,15.37
2018-04-18T12:02:28.565Z,19.50
2018-04-18T12:04:56.211Z,16.90
2018-04-18T12:07:23.828Z,19.50
2018-04-18T12:09:51.566Z,22.03
2018-04-18T12:12:19.223Z,19.60
2018-04-18T12:14:46.987Z,16.80
2018-04-18T12:17:14.829Z,17.80
2018-04-18T12:19:42.463Z,20.27
2018-04-18T12:22:10.150Z,24.77
2018-04-18T12:24:38.598Z,35.90
2018-04-18T12:27:06.265Z,25.10
2018-04-18T12:29:33.885Z,21.30
2018-04-18T12:32:01.493Z,29.47
2018-04-18T12:34:29.133Z,27.40
2018-04-18T12:36:56.749Z,26.23
2018-04-18T12:39:24.422Z,23.30
2018-04-18T12:41:52.095Z,26.70
2018-04-18T12:44:19.710Z,30.80
2018-04-18T12:46:47.414Z,23.53
2018-04-18T12:49:15.028Z,20.57
2018-04-18T12:51:42.702Z,35.97
2018-04-18T12:54:10.305Z,25.80
2018-04-18T12:56:37.954Z,24.93
2018-04-18T12:59:05.564Z,24.93
2018-04-18T13:01:33.243Z,24.70
2018-04-18T13:04:00.911Z,27.07
2018-04-18T13:06:29.300Z,27.30
2018-04-18T13:08:57.786Z,25.00
2018-04-18T13:11:25.496Z,25.73
2018-04-18T13:13:53.114Z,35.77
2018-04-18T13:16:20.761Z,29.10
2018-04-18T13:18:48.846Z,24.67
2018-04-18T13:21:18.118Z,24.23
2018-04-18T13:23:45.791Z,29.83
2018-04-18T13:26:14.262Z,28.53
2018-04-18T13:28:41.995Z,29.90
2018-04-18T13:31:09.687Z,36.03
2018-04-18T13:33:37.583Z,26.97
2018-04-18T13:36:05.520Z,31.57
2018-04-18T13:38:33.281Z,39.33
2018-04-18T13:41:00.928Z,28.50
2018-04-18T13:43:28.613Z,28.23
2018-04-18T13:45:57.327Z,29.87
2018-04-18T13:48:25.064Z,31.07
2018-04-18T13:50:52.900Z,27.23
2018-04-18T13:53:20.578Z,21.90
2018-04-18T13:55:48.271Z,33.63
2018-04-18T13:58:16.719Z,27.77
2018-04-18T14:00:44.956Z,29.70
2018-04-18T14:03:12.596Z,29.73
2018-04-18T14:05:41.425Z,24.27
2018-04-18T14:08:09.111Z,31.47
2018-04-18T14:10:36.897Z,30.73
2018-04-18T14:13:05.328Z,32.57
2018-04-18T14:15:32.941Z,55.93
2018-04-18T14:18:00.700Z,32.50
2018-04-18T14:20:28.360Z,27.57
2018-04-18T14:22:56.109Z,30.93
2018-04-18T14:25:23.802Z,32.47
2018-04-18T14:27:52.269Z,30.47
2018-04-18T14:30:19.927Z,35.60
2018-04-18T14:32:47.570Z,32.60
2018-04-18T14:35:15.171Z,33.00
2018-04-18T14:37:42.756Z,32.50
2018-04-18T14:40:10.449Z,36.53
2018-04-18T14:42:38.082Z,30.23
2018-04-18T14:45:05.899Z,32.13
2018-04-18T14:47:33.527Z,34.33
2018-04-18T14:50:01.306Z,38.30
2018-04-18T14:52:28.939Z,38.50
2018-04-18T14:54:56.648Z,34.47
2018-04-18T14:57:24.260Z,29.67
2018-04-18T14:59:51.901Z,35.63
2018-04-18T15:02:19.729Z,37.43
2018-04-18T15:04:47.915Z,30.40
2018-04-18T15:07:15.776Z,26.63
2018-04-18T15:09:43.636Z,20.90
2018-04-18T15:12:11.248Z,31.60
2018-04-18T15:14:38.889Z,29.87
2018-04-18T15:17:06.599Z,25.43
2018-04-18T15:19:34.215Z,29.40
2018-04-18T15:22:02.604Z,30.80
2018-04-18T15:24:31.063Z,32.77
2018-04-18T15:26:58.655Z,23.23
2018-04-18T15:29:27.316Z,29.93
2018-04-18T15:31:54.982Z,32.17
2018-04-18T15:34:22.706Z,26.00
2018-04-18T15:36:50.388Z,27.53
2018-04-18T15:39:18.078Z,24.60
2018-04-18T15:41:45.846Z,26.03
2018-04-18T15:44:14.269Z,26.17
2018-04-18T15:46:41.959Z,25.57
2018-04-18T15:49:09.679Z,24.80
2018-04-18T15:51:37.302Z,24.43
2018-04-18T15:54:05.023Z,30.73
2018-04-18T15:56:32.618Z,27.17
2018-04-18T15:59:00.276Z,26.43
2018-04-18T16:01:28.228Z,20.20
2018-04-18T16:03:56.681Z,26.33
2018-04-18T16:06:24.816Z,23.83
2018-04-18T16:08:52.441Z,29.40
2018-04-18T16:11:20.253Z,25.10
2018-04-18T16:13:47.891Z,21.70
2018-04-18T16:16:15.661Z,23.80
2018-04-18T16:18:43.377Z,19.47
2018-04-18T16:21:11.000Z,26.43
2018-04-18T16:23:39.414Z,35.37
2018-04-18T16:26:07.007Z,27.57
2018-04-18T16:28:34.684Z,22.50
2018-04-18T16:31:02.416Z,23.17
2018-04-18T16:33:30.067Z,27.97
2018-04-18T16:35:57.736Z,25.63
2018-04-18T16:38:25.405Z,24.43
2018-04-18T16:40:53.284Z,22.30
2018-04-18T16:43:20.951Z,28.00
2018-04-18T16:45:48.646Z,20.40
2018-04-18T16:48:16.358Z,24.20
2018-04-18T16:50:43.996Z,23.20
2018-04-18T16:53:11.655Z,26.30
2018-04-18T16:55:39.348Z,22.70
2018-04-18T16:58:07.099Z,27.77
2018-04-18T17:00:35.579Z,26.03
2018-04-18T17:03:06.233Z,25.00
2018-04-18T17:05:33.875Z,20.90
2018-04-18T17:08:01.584Z,22.50
2018-04-18T17:10:29.292Z,26.20
2018-04-18T17:12:56.916Z,23.23
2018-04-18T17:15:25.532Z,21.60
2018-04-18T17:17:54.363Z,26.83
2018-04-18T17:20:22.105Z,16.40
2018-04-18T17:22:50.036Z,23.10
2018-04-18T17:25:18.435Z,22.00
2018-04-18T17:27:46.077Z,19.20
2018-04-18T17:30:13.795Z,24.53
2018-04-18T17:32:41.452Z,21.30
2018-04-18T17:35:09.873Z,37.17
2018-04-18T17:37:37.603Z,33.13
2018-04-18T17:40:05.287Z,21.40
2018-04-18T17:42:33.096Z,21.43
2018-04-18T17:45:00.725Z,24.07
2018-04-18T17:47:28.509Z,16.67
2018-04-18T17:49:57.536Z,22.10
2018-04-18T17:52:26.710Z,21.70
2018-04-18T17:54:54.293Z,24.10
2018-04-18T17:57:22.006Z,20.20
2018-04-18T17:59:49.997Z,19.40
2018-04-18T18:02:18.758Z,23.83
2018-04-18T18:04:47.261Z,24.27
2018-04-18T18:07:16.231Z,20.53
2018-04-18T18:09:43.906Z,21.27
2018-04-18T18:12:11.568Z,22.00
2018-04-18T18:14:39.198Z,23.33
2018-04-18T18:17:06.878Z,20.17
2018-04-18T18:19:34.507Z,25.30
2018-04-18T18:22:02.231Z,24.77
2018-04-18T18:24:29.913Z,21.33
2018-04-18T18:26:58.095Z,26.80
2018-04-18T18:29:26.057Z,26.43
2018-04-18T18:31:53.872Z,20.83
2018-04-18T18:34:21.858Z,23.10
2018-04-18T18:36:49.669Z,22.13
2018-04-18T18:39:17.326Z,17.93
2018-04-18T18:41:45.448Z,20.97
2018-04-18T18:44:13.223Z,21.90
2018-04-18T18:46:40.799Z,20.63
2018-04-18T18:49:09.519Z,29.33
2018-04-18T18:51:37.270Z,23.37
2018-04-18T18:54:05.345Z,23.90
2018-04-18T18:56:33.246Z,22.77
2018-04-18T18:59:00.969Z,23.47
2018-04-18T19:01:28.701Z,28.07
2018-04-18T19:03:56.455Z,24.97
2018-04-18T19:06:24.125Z,21.53
2018-04-18T19:08:51.821Z,24.53
2018-04-18T19:11:20.071Z,23.93
2018-04-18T19:13:47.731Z,28.03
2018-04-18T19:16:15.456Z,23.20
2018-04-18T19:18:43.193Z,33.30
2018-04-18T19:21:11.057Z,27.90
2018-04-18T19:23:38.754Z,29.87
2018-04-18T19:26:06.405Z,35.67
2018-04-18T19:28:34.139Z,37.20
2018-04-18T19:31:02.654Z,28.83
2018-04-18T19:33:30.297Z,30.30
2018-04-18T19:35:58.819Z,27.57
2018-04-18T19:38:27.272Z,44.03
2018-04-18T19:40:54.915Z,30.57
2018-04-18T19:43:22.547Z,29.13
2018-04-18T19:45:51.011Z,31.80
2018-04-18T19:48:18.735Z,47.30
2018-04-18T19:50:46.506Z,41.43
2018-04-18T19:53:14.217Z,37.60
2018-04-18T19:55:41.817Z,36.47
2018-04-18T19:58:09.510Z,33.30
2018-04-18T20:00:37.173Z,44.10
2018-04-18T20:03:04.963Z,32.90
2018-04-18T20:05:32.670Z,41.70
2018-04-18T20:08:00.379Z,38.73
2018-04-18T20:10:28.036Z,37.77
2018-04-18T20:12:55.726Z,39.73
2018-04-18T20:15:24.219Z,38.30
2018-04-18T20:17:52.617Z,44.60
2018-04-18T20:20:20.322Z,40.10
2018-04-18T20:22:47.940Z,37.70
2018-04-18T20:25:15.667Z,52.13
2018-04-18T20:27:43.300Z,36.43
2018-04-18T20:30:10.985Z,39.60
2018-04-18T20:32:38.776Z,46.20
2018-04-18T20:35:06.423Z,41.70
2018-04-18T20:37:34.265Z,36.87
2018-04-18T20:40:01.882Z,44.80
2018-04-18T20:42:29.629Z,45.77
2018-04-18T20:44:57.260Z,40.73
2018-04-18T20:47:24.871Z,45.23
2018-04-18T20:49:52.511Z,40.97
2018-04-18T20:52:20.919Z,41.50
2018-04-18T20:54:48.569Z,34.47
2018-04-18T20:57:17.095Z,40.70
2018-04-18T20:59:45.499Z,45.73
2018-04-18T21:02:13.218Z,45.13
2018-04-18T21:04:40.916Z,47.83
2018-04-18T21:07:08.615Z,39.80
2018-04-18T21:09:36.313Z,40.70
2018-04-18T21:12:04.879Z,52.63
2018-04-18T21:14:32.586Z,49.97
2018-04-18T21:17:00.358Z,47.77
2018-04-18T21:19:28.028Z,40.60
2018-04-18T21:21:55.720Z,46.43
2018-04-18T21:24:24.129Z,43.80
2018-04-18T21:26:51.789Z,39.33
2018-04-18T21:29:19.410Z,51.93
2018-04-18T21:31:47.862Z,42.10
2018-04-18T21:34:15.440Z,42.70
2018-04-18T21:36:43.939Z,42.63
2018-04-18T21:39:11.647Z,54.63
2018-04-18T21:41:39.277Z,55.30
2018-04-18T21:44:07.670Z,41.57
2018-04-18T21:46:35.355Z,43.03
2018-04-18T21:49:02.958Z,49.90
2018-04-18T21:51:31.537Z,48.77
2018-04-18T21:54:00.795Z,41.80
2018-04-18T21:56:28.393Z,46.43
2018-04-18T21:58:56.710Z,39.07
2018-04-18T22:07:23.641Z,39.77
2018-04-18T22:10:08.929Z,43.17
2018-04-18T22:12:36.681Z,43.13
2018-04-18T22:15:08.216Z,37.00
2018-04-18T22:17:35.909Z,41.80
2018-04-18T22:20:03.596Z,38.50
2018-04-18T22:22:32.005Z,43.73
2018-04-18T22:24:59.611Z,37.63
2018-04-18T22:27:27.284Z,42.80
2018-04-18T22:30:12.596Z,38.47
2018-04-18T22:32:40.221Z,42.03
2018-04-18T22:35:08.623Z,48.03
2018-04-18T22:37:36.385Z,40.43
2018-04-18T22:40:04.033Z,45.93
2018-04-18T22:42:31.689Z,41.90
2018-04-18T22:44:59.326Z,44.63
2018-04-18T22:47:27.091Z,43.57
2018-04-18T22:49:56.053Z,43.83
2018-04-18T22:52:23.743Z,39.60
2018-04-18T22:54:51.367Z,48.33
2018-04-18T22:57:18.966Z,39.27
2018-04-18T22:59:47.432Z,49.20
2018-04-18T23:02:15.461Z,43.53
2018-04-18T23:04:43.030Z,40.93
2018-04-18T23:07:10.653Z,35.83
2018-04-18T23:09:38.261Z,38.17
2018-04-18T23:12:05.989Z,47.10
2018-04-18T23:14:34.965Z,39.53
2018-04-18T23:17:03.186Z,47.57
2018-04-18T23:19:30.946Z,34.13
2018-04-18T23:21:58.558Z,40.40
2018-04-18T23:24:26.222Z,39.57
2018-04-18T23:26:54.811Z,37.67
2018-04-18T23:29:22.453Z,33.80
2018-04-18T23:31:50.091Z,38.30
2018-04-18T23:34:17.837Z,43.63
2018-04-18T23:36:45.455Z,41.80
2018-04-18T23:39:13.085Z,47.00
2018-04-18T23:41:40.721Z,37.93
2018-04-18T23:44:09.159Z,40.47
2018-04-18T23:46:36.875Z,35.13
2018-04-18T23:49:04.565Z,43.53
2018-04-18T23:51:32.196Z,46.57
2018-04-18T23:54:00.588Z,39.80
2018-04-18T23:56:28.293Z,40.67
2018-04-18T23:58:55.931Z,34.37
